Time;durP1;ratioP1;P1;durP2;ratioP2;P2;SDS_P1;SDS_P2;PMS_P1;PMS_P2;Temp;Humidity;BMP_temperature;BMP_pressure;BME280_temperature;BME280_humidity;BME280_pressure;Samples;Min_cycle;Max_cycle;Signal;HPM_P1;HPM_P2
2021/12/24 00:01:55;;;;;;;8.45;4.88;;;5.40;99.90;;;;;;5053072;28;20029;-81
2021/12/24 00:04:22;;;;;;;7.38;5.03;;;5.30;99.90;;;;;;5051376;28;20412;-81
2021/12/24 00:06:51;;;;;;;9.55;4.93;;;5.30;99.90;;;;;;5051918;28;20548;-81
2021/12/24 00:09:23;;;;;;;9.57;5.40;;;5.20;99.90;;;;;;5051807;28;20021;-81
2021/12/24 00:11:51;;;;;;;7.40;4.80;;;5.10;99.90;;;;;;5053133;28;20024;-81
2021/12/24 00:14:17;;;;;;;9.20;4.93;;;5.20;99.90;;;;;;5051797;28;20056;-81
2021/12/24 00:16:48;;;;;;;8.05;4.20;;;5.20;99.90;;;;;;5052111;28;20029;-81
2021/12/24 00:19:22;;;;;;;9.50;4.90;;;5.40;99.90;;;;;;5053345;28;20025;-81
2021/12/24 00:35:36;;;;;;;9.90;5.38;;;5.60;99.90;;;;;;5053446;28;20051;-81
2021/12/24 00:38:05;;;;;;;11.68;5.70;;;5.60;99.90;;;;;;5051597;28;20545;-81
2021/12/24 00:40:37;;;;;;;9.82;5.70;;;5.50;99.90;;;;;;5051396;28;20040;-82
2021/12/24 00:43:04;;;;;;;13.88;5.40;;;5.30;99.90;;;;;;5051449;28;20120;-82
2021/12/24 00:45:33;;;;;;;19.50;5.88;;;5.00;99.90;;;;;;5051504;28;20025;-82
2021/12/24 00:48:00;;;;;;;8.95;5.22;;;4.80;99.90;;;;;;5051414;28;20485;-82
2021/12/24 00:50:29;;;;;;;10.20;5.43;;;4.60;99.90;;;;;;5052705;28;20014;-81
2021/12/24 00:53:02;;;;;;;13.80;5.20;;;4.40;99.90;;;;;;5052685;28;20029;-82
2021/12/24 00:55:31;;;;;;;12.85;5.80;;;4.20;99.90;;;;;;5051432;28;20032;-82
2021/12/24 00:58:02;;;;;;;8.55;4.97;;;4.10;99.90;;;;;;5051387;28;20392;-82
2021/12/24 01:00:37;;;;;;;6.90;4.75;;;4.00;99.90;;;;;;5052748;28;20407;-81
2021/12/24 01:03:06;;;;;;;11.50;6.32;;;3.90;99.90;;;;;;5051305;28;20032;-82
2021/12/24 01:05:33;;;;;;;9.52;5.70;;;3.90;99.90;;;;;;5051558;28;20043;-81
2021/12/24 01:07:59;;;;;;;10.45;5.38;;;3.90;99.90;;;;;;5051288;28;20033;-81
2021/12/24 01:10:28;;;;;;;12.07;5.50;;;3.90;99.90;;;;;;5052543;28;20101;-82
2021/12/24 01:12:54;;;;;;;12.85;5.65;;;3.80;99.90;;;;;;5052398;28;20079;-82
2021/12/24 01:15:20;;;;;;;9.57;5.45;;;3.70;99.90;;;;;;5051237;28;20029;-82
2021/12/24 01:17:56;;;;;;;14.30;6.07;;;3.70;99.90;;;;;;5053347;28;20037;-81
2021/12/24 01:25:36;;;;;;;15.73;7.93;;;3.70;99.90;;;;;;5056318;28;20028;-82
2021/12/24 01:44:26;;;;;;;10.63;4.88;;;4.50;99.90;;;;;;5065456;28;20461;-81
2021/12/24 01:47:04;;;;;;;9.98;5.10;;;4.40;99.90;;;;;;5055573;28;20025;-82
2021/12/24 01:49:30;;;;;;;6.93;4.03;;;4.30;99.90;;;;;;5054148;28;20021;-82
2021/12/24 01:51:57;;;;;;;6.70;4.03;;;4.30;99.90;;;;;;5055477;28;20029;-82
2021/12/24 01:54:24;;;;;;;8.13;4.43;;;4.50;99.90;;;;;;5054130;28;20512;-81
2021/12/24 01:56:50;;;;;;;10.32;4.45;;;4.70;99.90;;;;;;5054139;28;20025;-82
2021/12/24 01:59:16;;;;;;;7.82;3.75;;;4.70;99.90;;;;;;5055338;28;20021;-81
2021/12/24 02:01:42;;;;;;;6.18;3.45;;;4.80;99.90;;;;;;5055191;28;20021;-82
2021/12/24 02:04:08;;;;;;;4.88;3.58;;;4.90;99.90;;;;;;5053952;28;20021;-81
2021/12/24 02:06:33;;;;;;;5.70;3.40;;;5.30;99.90;;;;;;5053895;28;20033;-81
2021/12/24 02:08:59;;;;;;;7.20;3.63;;;5.40;99.90;;;;;;5053859;28;20112;-82
2021/12/24 02:11:25;;;;;;;9.93;3.53;;;5.60;99.90;;;;;;5053818;28;20029;-82
2021/12/24 02:13:52;;;;;;;9.07;3.30;;;5.70;99.90;;;;;;5055048;28;20024;-81
2021/12/24 02:16:50;;;;;;;5.38;3.00;;;5.90;99.90;;;;;;5055020;28;20075;-82
2021/12/24 02:29:58;;;;;;;4.22;2.50;;;6.30;99.90;;;;;;5054771;28;20056;-82
2021/12/24 02:32:24;;;;;;;4.28;2.65;;;6.50;99.90;;;;;;5054686;28;20151;-82
2021/12/24 02:34:50;;;;;;;4.28;2.50;;;6.50;99.90;;;;;;5053354;28;20556;-82
2021/12/24 02:37:16;;;;;;;5.22;2.78;;;6.60;99.90;;;;;;5055151;28;20036;-82
2021/12/24 02:39:42;;;;;;;5.45;2.83;;;6.60;99.90;;;;;;5053217;28;20049;-81
2021/12/24 02:42:16;;;;;;;3.53;2.50;;;6.60;99.90;;;;;;5053190;28;20605;-81
2021/12/24 02:44:43;;;;;;;5.90;2.50;;;6.70;99.90;;;;;;5053168;28;20017;-82
2021/12/24 02:55:06;;;;;;;5.68;3.00;;;6.80;99.90;;;;;;5054820;28;20150;-82
2021/12/24 02:57:34;;;;;;;4.55;2.75;;;6.60;99.90;;;;;;5054198;28;20029;-82
2021/12/24 03:00:06;;;;;;;6.93;3.00;;;6.50;99.90;;;;;;5054334;28;20017;-82
2021/12/24 03:02:33;;;;;;;5.68;2.67;;;6.40;99.90;;;;;;5052768;28;20021;-82
2021/12/24 03:05:00;;;;;;;7.57;2.90;;;6.30;99.90;;;;;;5054038;28;20025;-82
2021/12/24 03:07:26;;;;;;;6.05;3.05;;;6.20;99.90;;;;;;5053103;28;20112;-82
2021/12/24 03:09:52;;;;;;;5.45;3.40;;;6.00;99.90;;;;;;5053937;28;20063;-82
2021/12/24 03:12:18;;;;;;;9.45;3.60;;;5.90;99.90;;;;;;5052666;28;20028;-82
2021/12/24 03:14:44;;;;;;;7.25;3.53;;;6.00;99.90;;;;;;5052702;28;20029;-81
2021/12/24 03:17:15;;;;;;;8.05;3.50;;;6.00;99.90;;;;;;5052678;28;20120;-82
2021/12/24 03:19:40;;;;;;;8.52;4.05;;;5.90;99.90;;;;;;5052569;28;20033;-82
2021/12/24 03:24:35;;;;;;;8.23;3.67;;;5.70;99.90;;;;;;5053735;28;20020;-82
2021/12/24 03:27:02;;;;;;;7.43;3.75;;;5.70;99.90;;;;;;5052377;28;20439;-82
2021/12/24 03:29:28;;;;;;;5.75;3.40;;;5.50;99.90;;;;;;5052661;28;20025;-82
2021/12/24 03:31:54;;;;;;;7.78;4.00;;;5.40;99.90;;;;;;5052305;28;20054;-82
2021/12/24 03:34:22;;;;;;;5.93;3.53;;;5.40;99.90;;;;;;5052278;28;20140;-82
2021/12/24 03:36:48;;;;;;;7.25;3.45;;;5.30;99.90;;;;;;5052250;28;20032;-82
2021/12/24 03:39:15;;;;;;;7.35;3.72;;;5.30;99.90;;;;;;5051422;28;20068;-82
2021/12/24 03:41:41;;;;;;;6.40;3.40;;;5.30;99.90;;;;;;5052048;28;20036;-82
2021/12/24 03:44:09;;;;;;;7.88;3.75;;;5.20;99.90;;;;;;5052112;28;20032;-82
2021/12/24 03:46:55;;;;;;;8.48;4.03;;;5.10;99.90;;;;;;5053386;28;20024;-82
2021/12/24 03:49:52;;;;;;;10.77;4.07;;;5.00;99.90;;;;;;5053328;28;20027;-81
2021/12/24 03:55:00;;;;;;;9.93;3.95;;;5.00;99.90;;;;;;5053385;28;20043;-82
2021/12/24 03:57:41;;;;;;;4.10;2.67;;;5.00;99.90;;;;;;5053609;28;20427;-82
2021/12/24 04:00:10;;;;;;;6.90;3.78;;;5.00;99.90;;;;;;5051931;28;20268;-82
2021/12/24 04:02:36;;;;;;;7.18;3.88;;;5.00;99.90;;;;;;5051847;28;20078;-82
2021/12/24 04:05:02;;;;;;;6.45;3.83;;;5.00;99.90;;;;;;5053187;28;20088;-82
2021/12/24 04:07:28;;;;;;;4.50;3.10;;;5.10;99.90;;;;;;5053164;28;20475;-82
2021/12/24 04:10:02;;;;;;;6.97;3.08;;;5.10;99.90;;;;;;5051881;28;20060;-82
2021/12/24 04:12:28;;;;;;;7.03;3.80;;;5.10;99.90;;;;;;5053142;28;20024;-82
2021/12/24 04:14:54;;;;;;;8.32;3.65;;;5.20;99.90;;;;;;5051782;28;20104;-82
2021/12/24 04:17:21;;;;;;;8.20;3.63;;;5.60;99.90;;;;;;5051778;28;20124;-82
2021/12/24 04:25:15;;;;;;;6.72;3.15;;;6.50;99.90;;;;;;5053042;28;20112;-82
2021/12/24 04:27:41;;;;;;;5.75;3.10;;;6.80;99.90;;;;;;5052998;28;20116;-82
2021/12/24 04:30:15;;;;;;;11.98;3.53;;;7.10;99.90;;;;;;5053176;28;20029;-82
2021/12/24 04:51:42;;;;;;;5.22;2.67;;;7.80;99.90;;;;;;5055384;28;20101;-83
2021/12/24 05:04:49;;;;;;;6.72;3.30;;;7.60;99.90;;;;;;5056433;28;20288;-83
2021/12/24 05:09:59;;;;;;;6.10;3.10;;;7.70;99.90;;;;;;5056881;28;20495;-82
2021/12/24 05:12:25;;;;;;;4.53;2.67;;;7.70;99.90;;;;;;5054961;28;20119;-83
2021/12/24 05:14:51;;;;;;;4.13;2.72;;;7.70;99.90;;;;;;5054872;28;20027;-82
2021/12/24 05:22:30;;;;;;;5.40;2.78;;;7.50;99.90;;;;;;5056253;28;20032;-81
2021/12/24 05:24:57;;;;;;;7.40;2.80;;;7.50;99.90;;;;;;5055574;28;20485;-81
2021/12/24 05:27:23;;;;;;;8.02;2.80;;;7.60;99.90;;;;;;5054773;28;20025;-81
2021/12/24 05:29:49;;;;;;;5.22;3.33;;;7.60;99.90;;;;;;5054691;28;20021;-81
2021/12/24 05:32:15;;;;;;;6.80;3.17;;;7.50;99.90;;;;;;5054536;28;20542;-82
2021/12/24 05:34:41;;;;;;;7.15;2.90;;;7.50;99.90;;;;;;5055727;28;20041;-82
2021/12/24 05:37:07;;;;;;;5.78;3.17;;;7.60;99.90;;;;;;5056003;28;20388;-82
2021/12/24 05:39:34;;;;;;;5.30;2.92;;;7.60;99.90;;;;;;5054249;28;20052;-82
2021/12/24 05:42:00;;;;;;;7.15;3.00;;;7.60;99.90;;;;;;5054348;28;20033;-81
2021/12/24 05:44:26;;;;;;;5.05;3.00;;;7.60;99.90;;;;;;5054365;28;20049;-82
2021/12/24 05:46:52;;;;;;;6.07;3.00;;;7.60;99.90;;;;;;5054394;28;20591;-82
2021/12/24 05:49:18;;;;;;;7.18;3.22;;;7.50;99.90;;;;;;5055528;28;20100;-81
2021/12/24 05:51:44;;;;;;;5.85;3.42;;;7.50;99.90;;;;;;5055451;28;20075;-82
2021/12/24 05:54:11;;;;;;;4.90;2.58;;;7.50;99.90;;;;;;5054090;28;20021;-83
2021/12/24 05:56:37;;;;;;;5.55;3.05;;;7.50;99.90;;;;;;5055397;28;20025;-82
2021/12/24 05:59:04;;;;;;;6.45;3.55;;;7.40;99.90;;;;;;5054097;28;20400;-81
2021/12/24 06:01:30;;;;;;;6.18;3.60;;;7.50;99.90;;;;;;5053992;28;20029;-81
2021/12/24 06:03:57;;;;;;;4.25;3.03;;;7.50;99.90;;;;;;5053206;28;20021;-81
2021/12/24 06:06:22;;;;;;;5.43;2.58;;;7.40;99.90;;;;;;5053917;28;20025;-82
2021/12/24 06:08:49;;;;;;;7.38;3.42;;;7.40;99.90;;;;;;5053917;28;20435;-82
2021/12/24 06:11:14;;;;;;;7.00;3.00;;;7.40;99.90;;;;;;5053877;28;20024;-82
2021/12/24 06:13:40;;;;;;;4.65;2.78;;;7.40;99.90;;;;;;5053800;28;20473;-82
2021/12/24 06:16:07;;;;;;;5.97;3.38;;;7.50;99.90;;;;;;5055015;28;20389;-81
2021/12/24 06:18:37;;;;;;;5.50;2.85;;;7.40;99.90;;;;;;5054965;28;20074;-82
2021/12/24 06:21:06;;;;;;;4.05;3.13;;;7.50;99.90;;;;;;5054960;28;20028;-82
2021/12/24 06:23:33;;;;;;;5.50;3.20;;;7.50;99.90;;;;;;5053667;28;20029;-81
2021/12/24 06:26:00;;;;;;;4.70;2.90;;;7.50;99.90;;;;;;5053540;28;20017;-81
2021/12/24 06:28:27;;;;;;;9.60;3.22;;;7.40;99.90;;;;;;5053477;28;20086;-80
2021/12/24 06:30:53;;;;;;;5.45;2.90;;;7.40;99.90;;;;;;5053471;28;20028;-80
2021/12/24 06:33:19;;;;;;;5.07;2.80;;;7.40;99.90;;;;;;5053692;28;20025;-80
2021/12/24 06:35:45;;;;;;;10.20;3.40;;;7.40;99.90;;;;;;5053242;28;20094;-81
2021/12/24 06:38:11;;;;;;;5.45;2.70;;;7.40;99.90;;;;;;5053310;28;20029;-81
2021/12/24 06:40:37;;;;;;;4.47;2.90;;;7.30;99.90;;;;;;5053057;28;20064;-81
2021/12/24 06:43:04;;;;;;;5.25;2.95;;;7.30;99.90;;;;;;5053104;28;20043;-81
2021/12/24 06:45:30;;;;;;;6.95;3.33;;;7.40;99.90;;;;;;5053983;28;20021;-81
2021/12/24 06:47:58;;;;;;;5.57;3.35;;;7.30;99.90;;;;;;5053080;28;20025;-81
2021/12/24 06:50:25;;;;;;;10.23;3.28;;;7.30;99.90;;;;;;5053089;28;20081;-81
2021/12/24 06:52:51;;;;;;;5.20;3.17;;;7.20;99.90;;;;;;5053014;28;20074;-81
2021/12/24 06:55:17;;;;;;;5.53;3.50;;;7.20;99.90;;;;;;5054534;28;20032;-81
2021/12/24 06:57:43;;;;;;;6.65;3.42;;;7.20;99.90;;;;;;5052948;28;20025;-81
2021/12/24 07:00:13;;;;;;;7.13;3.38;;;7.10;99.90;;;;;;5052952;28;20025;-81
2021/12/24 07:02:39;;;;;;;5.93;3.47;;;7.20;99.90;;;;;;5054003;28;20116;-81
2021/12/24 07:05:05;;;;;;;6.47;3.30;;;7.10;99.90;;;;;;5052804;28;20128;-81
2021/12/24 07:07:30;;;;;;;7.07;3.80;;;7.20;99.90;;;;;;5053984;28;20024;-80
2021/12/24 07:09:56;;;;;;;6.38;3.58;;;7.30;99.90;;;;;;5052672;28;20030;-80
2021/12/24 07:12:22;;;;;;;5.88;3.40;;;7.30;99.90;;;;;;5052728;28;20032;-81
2021/12/24 07:14:49;;;;;;;10.35;4.18;;;7.30;99.90;;;;;;5052576;28;20025;-80
2021/12/24 07:17:15;;;;;;;10.88;3.22;;;7.30;99.90;;;;;;5052572;28;20115;-81
2021/12/24 07:19:42;;;;;;;4.45;2.97;;;7.20;99.90;;;;;;5052587;28;20078;-81
2021/12/24 07:22:08;;;;;;;6.82;3.08;;;7.30;99.90;;;;;;5052430;28;20033;-81
2021/12/24 07:24:36;;;;;;;8.10;3.30;;;7.40;99.90;;;;;;5052465;28;20017;-81
2021/12/24 07:27:03;;;;;;;7.30;3.10;;;7.30;99.90;;;;;;5052431;28;20033;-81
2021/12/24 07:29:30;;;;;;;5.68;3.10;;;7.30;99.90;;;;;;5053613;28;20017;-81
2021/12/24 07:31:56;;;;;;;3.78;2.70;;;7.30;99.90;;;;;;5052393;28;20392;-81
2021/12/24 07:34:22;;;;;;;6.28;3.53;;;7.30;99.90;;;;;;5052216;28;20028;-81
2021/12/24 07:36:48;;;;;;;8.68;3.42;;;7.30;99.90;;;;;;5053507;28;20480;-80
2021/12/24 07:39:14;;;;;;;5.78;3.05;;;7.20;99.90;;;;;;5052062;28;20036;-81
2021/12/24 07:41:40;;;;;;;6.78;2.75;;;7.20;99.90;;;;;;5052142;28;20037;-81
2021/12/24 07:44:08;;;;;;;5.15;3.28;;;7.10;99.90;;;;;;5052449;28;20059;-81
2021/12/24 07:46:43;;;;;;;4.95;2.85;;;7.10;99.90;;;;;;5053395;28;20491;-81
2021/12/24 07:49:19;;;;;;;7.05;3.53;;;7.10;99.90;;;;;;5052022;28;20017;-81
2021/12/24 07:54:31;;;;;;;5.40;3.13;;;7.10;99.90;;;;;;5053862;28;20043;-81
2021/12/24 07:56:59;;;;;;;6.68;3.30;;;7.00;99.90;;;;;;5051974;28;20029;-80
2021/12/24 07:59:26;;;;;;;10.35;3.55;;;7.00;99.90;;;;;;5051962;28;20079;-80
2021/12/24 08:01:54;;;;;;;6.30;3.28;;;7.10;99.90;;;;;;5051822;28;20112;-80
2021/12/24 08:04:20;;;;;;;5.60;3.55;;;7.10;99.90;;;;;;5051879;28;20457;-81
2021/12/24 08:06:46;;;;;;;6.85;3.92;;;7.10;99.90;;;;;;5053662;28;20377;-81
2021/12/24 08:09:12;;;;;;;5.28;3.03;;;7.10;99.90;;;;;;5053130;28;20021;-82
2021/12/24 08:11:39;;;;;;;12.73;5.05;;;7.10;99.90;;;;;;5053365;28;20025;-81
2021/12/24 08:14:06;;;;;;;6.97;3.90;;;7.10;99.90;;;;;;5051759;28;20116;-81
2021/12/24 08:16:33;;;;;;;5.93;3.83;;;7.10;99.90;;;;;;5052987;28;20529;-81
2021/12/24 08:18:59;;;;;;;5.68;3.85;;;7.10;99.90;;;;;;5051524;28;20021;-81
2021/12/24 08:21:26;;;;;;;8.35;3.65;;;7.10;99.90;;;;;;5051489;28;20033;-81
2021/12/24 08:23:52;;;;;;;6.18;3.50;;;7.10;99.90;;;;;;5051603;28;20017;-81
2021/12/24 08:26:21;;;;;;;7.53;3.83;;;7.10;99.90;;;;;;5053218;28;20024;-80
2021/12/24 08:28:48;;;;;;;8.35;3.55;;;7.10;99.90;;;;;;5055680;28;20021;-80
2021/12/24 08:31:14;;;;;;;8.30;3.92;;;7.10;99.90;;;;;;5055674;28;20465;-81
2021/12/24 08:33:40;;;;;;;6.65;3.90;;;7.00;99.90;;;;;;5055571;28;20021;-81
2021/12/24 08:36:07;;;;;;;7.60;4.93;;;7.00;99.90;;;;;;5057059;28;20036;-80
2021/12/24 08:38:33;;;;;;;13.55;7.50;;;6.90;99.90;;;;;;5055494;28;20392;-81
2021/12/24 08:40:59;;;;;;;5.88;3.80;;;7.00;99.90;;;;;;5056584;28;20040;-81
2021/12/24 08:43:25;;;;;;;6.38;3.70;;;7.00;99.90;;;;;;5055404;28;20080;-80
2021/12/24 08:45:51;;;;;;;11.57;4.18;;;6.90;99.90;;;;;;5055385;28;20017;-80
2021/12/24 08:48:17;;;;;;;8.27;4.43;;;6.90;99.90;;;;;;5055281;28;20025;-80
2021/12/24 08:50:42;;;;;;;6.32;3.53;;;6.90;99.90;;;;;;5055306;28;20113;-80
2021/12/24 08:53:08;;;;;;;7.05;4.47;;;6.90;99.90;;;;;;5055234;28;20033;-80
2021/12/24 08:55:35;;;;;;;7.60;4.53;;;6.80;99.90;;;;;;5055171;28;20025;-80
2021/12/24 08:58:02;;;;;;;7.05;3.67;;;6.80;99.90;;;;;;5056461;28;20469;-81
2021/12/24 09:00:29;;;;;;;6.45;3.50;;;6.80;99.90;;;;;;5055298;28;20036;-80
2021/12/24 09:02:56;;;;;;;5.85;3.60;;;6.90;99.90;;;;;;5056321;28;20434;-81
2021/12/24 09:05:23;;;;;;;6.82;3.50;;;6.90;99.90;;;;;;5055060;28;20021;-80
2021/12/24 09:07:49;;;;;;;6.18;3.85;;;6.90;99.90;;;;;;5054970;28;20125;-80
2021/12/24 09:10:15;;;;;;;5.70;3.50;;;6.90;99.90;;;;;;5056226;28;20032;-80
2021/12/24 09:12:44;;;;;;;10.85;3.70;;;6.90;99.90;;;;;;5055232;28;20029;-80
2021/12/24 09:15:14;;;;;;;5.68;3.30;;;6.90;99.90;;;;;;5056134;28;20392;-81
2021/12/24 09:17:46;;;;;;;9.32;3.58;;;6.80;99.90;;;;;;5054844;28;20032;-81
2021/12/24 09:20:19;;;;;;;8.40;3.35;;;6.90;99.90;;;;;;5054808;28;20025;-79
2021/12/24 09:22:47;;;;;;;11.07;3.88;;;6.90;99.90;;;;;;5054758;28;20050;-80
2021/12/24 09:25:13;;;;;;;5.60;3.45;;;6.90;99.90;;;;;;5056279;28;20414;-81
2021/12/24 09:27:38;;;;;;;6.10;3.40;;;6.90;99.90;;;;;;5054671;28;20163;-80
2021/12/24 09:30:05;;;;;;;7.40;3.40;;;6.90;99.90;;;;;;5054665;28;20024;-80
2021/12/24 09:32:31;;;;;;;6.47;3.50;;;6.90;99.90;;;;;;5054545;28;20572;-80
2021/12/24 09:34:58;;;;;;;6.65;3.58;;;7.00;99.90;;;;;;5054807;28;20396;-80
2021/12/24 09:37:23;;;;;;;8.30;4.10;;;7.00;99.90;;;;;;5053544;28;20052;-80
2021/12/24 09:39:49;;;;;;;6.90;3.78;;;6.90;99.90;;;;;;5054238;28;20076;-80
2021/12/24 09:42:15;;;;;;;19.08;8.38;;;6.90;99.90;;;;;;5054330;28;20040;-80
2021/12/24 09:44:41;;;;;;;9.45;4.43;;;7.00;99.90;;;;;;5054280;28;20025;-80
2021/12/24 09:47:07;;;;;;;9.48;5.63;;;6.90;99.90;;;;;;5055855;28;20028;-80
2021/12/24 09:49:34;;;;;;;5.60;3.63;;;6.90;99.90;;;;;;5054141;28;20025;-79
2021/12/24 09:52:01;;;;;;;7.57;3.75;;;6.90;99.90;;;;;;5055719;28;20032;-80
2021/12/24 09:54:27;;;;;;;7.18;4.25;;;6.90;99.90;;;;;;5054064;28;20435;-80
2021/12/24 09:56:56;;;;;;;7.40;4.43;;;7.00;99.90;;;;;;5054095;28;20029;-80
2021/12/24 09:59:22;;;;;;;11.70;4.90;;;7.00;99.90;;;;;;5053945;28;20021;-80
2021/12/24 10:01:55;;;;;;;6.75;3.80;;;7.00;99.90;;;;;;5055196;28;20057;-81
2021/12/24 10:04:23;;;;;;;9.38;5.22;;;7.00;99.90;;;;;;5053814;28;20021;-80
2021/12/24 10:07:07;;;;;;;8.60;4.43;;;7.00;99.90;;;;;;5053859;28;20028;-82
2021/12/24 10:09:34;;;;;;;8.85;4.30;;;7.00;99.90;;;;;;5053932;28;20067;-81
2021/12/24 10:12:04;;;;;;;10.15;4.30;;;7.00;99.90;;;;;;5053769;28;20025;-80
2021/12/24 10:14:33;;;;;;;10.57;5.13;;;7.00;99.90;;;;;;5053781;28;20036;-80
2021/12/24 10:17:00;;;;;;;13.40;5.07;;;7.00;99.90;;;;;;5055293;28;20500;-80
2021/12/24 10:19:26;;;;;;;10.10;5.82;;;7.00;99.90;;;;;;5053717;28;20106;-80
2021/12/24 10:22:03;;;;;;;13.02;5.35;;;7.00;99.90;;;;;;5053603;28;20511;-80
2021/12/24 10:24:30;;;;;;;8.32;5.10;;;6.90;99.90;;;;;;5053499;28;20025;-81
2021/12/24 10:26:59;;;;;;;7.80;4.40;;;6.90;99.90;;;;;;5053375;28;20436;-80
2021/12/24 10:29:37;;;;;;;11.73;5.05;;;7.00;99.90;;;;;;5053339;28;20083;-80
2021/12/24 10:32:16;;;;;;;5.88;3.38;;;7.00;99.90;;;;;;5053567;28;20036;-81
2021/12/24 10:34:43;;;;;;;9.98;3.83;;;7.00;99.90;;;;;;5054059;28;20051;-80
2021/12/24 10:37:23;;;;;;;9.68;4.93;;;7.00;99.90;;;;;;5054418;28;20021;-80
2021/12/24 10:40:00;;;;;;;8.90;3.83;;;7.00;99.90;;;;;;5052969;28;20064;-80
2021/12/24 10:42:31;;;;;;;6.80;3.60;;;7.00;99.90;;;;;;5053064;28;20473;-80
2021/12/24 10:44:59;;;;;;;5.32;3.13;;;7.00;99.90;;;;;;5052994;28;20021;-80
2021/12/24 10:47:32;;;;;;;5.65;2.97;;;7.00;99.90;;;;;;5052845;28;20052;-80
2021/12/24 10:53:01;;;;;;;7.32;3.25;;;7.10;99.90;;;;;;5054221;28;20033;-81
2021/12/24 10:55:36;;;;;;;3.50;2.80;;;7.10;99.90;;;;;;5054121;28;20017;-80
2021/12/24 10:58:04;;;;;;;8.77;4.05;;;7.00;99.90;;;;;;5052787;28;20078;-80
2021/12/24 11:00:39;;;;;;;4.22;2.88;;;7.10;99.90;;;;;;5052638;28;20025;-80
2021/12/24 11:03:13;;;;;;;4.32;2.83;;;7.00;99.90;;;;;;5053840;28;20501;-80
2021/12/24 11:05:47;;;;;;;3.42;2.42;;;7.10;99.90;;;;;;5052597;28;20116;-81
2021/12/24 11:08:18;;;;;;;;;;;7.10;99.90;;;;;;5054494;28;20422;-80
2021/12/24 11:10:48;;;;;;;4.13;2.45;;;7.10;99.90;;;;;;5054052;28;19904;-80
2021/12/24 11:13:17;;;;;;;3.42;2.30;;;7.10;99.90;;;;;;5052502;28;20025;-81
2021/12/24 11:15:48;;;;;;;5.28;2.45;;;7.10;99.90;;;;;;5052429;28;20025;-80
2021/12/24 11:18:19;;;;;;;2.88;2.00;;;7.10;99.90;;;;;;5053644;28;20025;-80
2021/12/24 11:20:50;;;;;;;6.97;2.80;;;7.20;99.90;;;;;;5053910;28;20500;-80
2021/12/24 11:23:18;;;;;;;2.92;2.22;;;7.20;99.90;;;;;;5053544;28;20021;-80
2021/12/24 11:25:59;;;;;;;4.82;2.25;;;7.20;99.90;;;;;;5053491;28;20388;-79
2021/12/24 11:28:26;;;;;;;4.18;2.13;;;7.20;99.90;;;;;;5053503;28;20040;-79
2021/12/24 11:30:55;;;;;;;5.05;2.30;;;7.20;99.90;;;;;;5052115;28;20036;-80
2021/12/24 11:33:27;;;;;;;7.70;2.50;;;7.20;99.90;;;;;;5052165;28;20488;-81
2021/12/24 11:35:58;;;;;;;4.43;2.15;;;7.20;99.90;;;;;;5053202;28;20047;-81
2021/12/24 11:38:28;;;;;;;3.90;1.90;;;7.30;99.90;;;;;;5053318;28;20021;-80
2021/12/24 11:40:56;;;;;;;3.33;2.10;;;7.30;99.90;;;;;;5053187;28;20455;-80
2021/12/24 11:43:29;;;;;;;6.38;2.47;;;7.30;99.90;;;;;;5051885;28;20028;-80
2021/12/24 11:46:03;;;;;;;3.25;2.30;;;7.30;99.90;;;;;;5051981;28;20033;-79
2021/12/24 11:48:31;;;;;;;4.03;2.22;;;7.30;99.90;;;;;;5051820;28;20035;-79
2021/12/24 11:50:59;;;;;;;4.43;2.50;;;7.30;99.90;;;;;;5051880;28;20024;-80
2021/12/24 11:53:26;;;;;;;2.90;2.35;;;7.30;99.90;;;;;;5051839;28;20028;-81
2021/12/24 11:55:52;;;;;;;2.95;1.95;;;7.30;99.90;;;;;;5051765;28;20025;-80
2021/12/24 11:58:24;;;;;;;3.90;2.08;;;7.30;99.90;;;;;;5053062;28;20029;-80
2021/12/24 12:00:55;;;;;;;3.50;1.98;;;7.50;99.90;;;;;;5051348;28;20361;-80
2021/12/24 12:03:49;;;;;;;3.67;2.05;;;7.40;99.90;;;;;;5051658;28;20025;-81
2021/12/24 12:06:17;;;;;;;3.45;2.60;;;7.50;99.90;;;;;;5052256;28;20465;-81
2021/12/24 12:08:51;;;;;;;3.42;1.58;;;7.50;99.90;;;;;;5052941;28;20025;-80
2021/12/24 12:11:26;;;;;;;3.22;1.92;;;7.60;99.90;;;;;;5052954;28;20025;-79
2021/12/24 12:14:04;;;;;;;2.65;1.85;;;7.60;99.90;;;;;;5051663;28;20167;-81
2021/12/24 12:16:39;;;;;;;1.65;1.38;;;7.60;99.90;;;;;;5051593;28;20052;-80
2021/12/24 12:19:15;;;;;;;4.55;2.10;;;7.70;99.90;;;;;;5051514;28;20067;-80
2021/12/24 12:22:10;;;;;;;9.63;5.38;;;7.70;99.90;;;;;;5051529;28;20028;-80
2021/12/24 12:27:27;;;;;;;4.03;2.47;;;7.70;99.90;;;;;;5052996;28;20075;-79
2021/12/24 12:29:53;;;;;;;3.28;1.88;;;7.80;99.90;;;;;;5051454;28;20074;-81
2021/12/24 12:32:19;;;;;;;2.75;1.60;;;7.70;99.90;;;;;;5051386;28;20033;-81
2021/12/24 12:34:45;;;;;;;6.75;3.88;;;7.70;99.90;;;;;;5051613;28;20037;-81
2021/12/24 12:37:26;;;;;;;5.28;2.97;;;7.70;99.90;;;;;;5051215;28;20485;-81
2021/12/24 12:40:05;;;;;;;3.40;1.90;;;7.70;99.90;;;;;;5051194;28;20044;-80
2021/12/24 12:42:50;;;;;;;28.77;13.07;;;7.80;99.90;;;;;;5051295;28;20025;-80
2021/12/24 12:45:20;;;;;;;6.00;4.22;;;7.80;99.90;;;;;;5051231;28;20021;-79
2021/12/24 12:47:57;;;;;;;4.22;2.33;;;7.90;99.90;;;;;;5051197;28;20025;-80
2021/12/24 12:50:24;;;;;;;7.50;4.03;;;7.90;99.90;;;;;;5052526;28;20100;-80
2021/12/24 12:52:58;;;;;;;4.68;2.72;;;7.90;99.90;;;;;;5052486;28;20485;-80
2021/12/24 12:55:33;;;;;;;4.95;3.35;;;7.90;99.90;;;;;;5052418;28;20103;-80
2021/12/24 12:58:17;;;;;;;4.90;2.20;;;8.00;99.90;;;;;;5052426;28;20029;-80
2021/12/24 13:01:00;;;;;;;5.70;3.15;;;8.00;99.90;;;;;;5051155;28;20021;-80
2021/12/24 13:03:26;;;;;;;4.50;2.00;;;8.00;99.90;;;;;;5051143;28;20044;-80
2021/12/24 13:06:04;;;;;;;5.03;2.95;;;8.10;99.90;;;;;;5051060;28;20037;-78
2021/12/24 13:08:36;;;;;;;3.55;2.22;;;8.10;99.90;;;;;;5051103;28;20052;-80
2021/12/24 13:11:11;;;;;;;3.33;2.13;;;8.10;99.90;;;;;;5051032;28;20488;-79
2021/12/24 13:13:59;;;;;;;5.45;3.05;;;8.20;99.90;;;;;;5054471;28;20116;-80
2021/12/24 13:16:37;;;;;;;11.98;9.13;;;8.20;99.90;;;;;;5055814;28;20029;-80
2021/12/24 13:25:05;;;;;;;5.90;3.28;;;8.00;99.90;;;;;;5056590;28;20119;-80
2021/12/24 13:27:37;;;;;;;10.25;6.15;;;8.10;99.90;;;;;;5055765;28;20380;-81
2021/12/24 13:30:07;;;;;;;6.15;3.55;;;8.10;99.90;;;;;;5055682;28;20048;-80
2021/12/24 13:32:52;;;;;;;11.57;7.65;;;8.00;99.90;;;;;;5054411;28;20060;-80
2021/12/24 13:35:42;;;;;;;6.03;4.30;;;8.00;99.90;;;;;;5054311;28;20035;-80
2021/12/24 13:38:28;;;;;;;9.20;4.50;;;8.00;99.90;;;;;;5051841;28;20041;-80
2021/12/24 13:40:56;;;;;;;2.50;1.63;;;8.00;99.90;;;;;;5055273;28;20524;-78
2021/12/24 13:43:22;;;;;;;2.42;1.40;;;8.00;99.90;;;;;;5054027;28;20033;-79
2021/12/24 13:45:51;;;;;;;1.00;0.80;;;8.00;99.90;;;;;;5054130;28;20037;-80
2021/12/24 13:48:25;;;;;;;1.35;0.88;;;8.00;99.90;;;;;;5055316;28;20025;-79
2021/12/24 13:56:46;;;;;;;2.75;1.58;;;8.10;99.90;;;;;;5055737;28;20071;-80
2021/12/24 13:59:16;;;;;;;2.15;1.10;;;8.10;99.90;;;;;;5053830;28;20481;-81
2021/12/24 14:01:43;;;;;;;4.32;3.03;;;8.20;99.90;;;;;;5054270;28;20458;-80
2021/12/24 14:04:10;;;;;;;3.83;2.33;;;8.10;99.90;;;;;;5053739;28;20024;-79
2021/12/24 14:06:39;;;;;;;4.90;3.53;;;8.20;99.90;;;;;;5055036;28;20060;-79
2021/12/24 14:09:16;;;;;;;4.13;2.78;;;8.20;99.90;;;;;;5053722;28;20021;-80
2021/12/24 14:11:44;;;;;;;3.60;2.72;;;8.20;99.90;;;;;;5053674;28;20082;-80
2021/12/24 14:14:23;;;;;;;85.80;34.13;;;8.20;99.90;;;;;;5053525;28;20075;-80
2021/12/24 14:17:06;;;;;;;6.57;5.32;;;8.20;99.90;;;;;;5053518;28;20025;-80
2021/12/24 14:20:01;;;;;;;6.95;4.63;;;8.10;99.90;;;;;;5054990;28;20020;-81
2021/12/24 14:22:30;;;;;;;5.05;2.95;;;8.10;99.90;;;;;;5054693;28;20492;-81
2021/12/24 14:25:02;;;;;;;5.07;3.47;;;8.10;99.90;;;;;;5053998;28;20021;-80
2021/12/24 14:27:30;;;;;;;2.70;2.10;;;8.10;99.90;;;;;;5053311;28;20072;-80
2021/12/24 14:30:08;;;;;;;4.60;3.40;;;8.10;99.90;;;;;;5053258;28;20029;-80
2021/12/24 14:32:46;;;;;;;4.40;3.35;;;8.00;99.90;;;;;;5053201;28;20385;-80
2021/12/24 14:35:20;;;;;;;2.50;2.00;;;8.00;99.90;;;;;;5054472;28;20053;-81
2021/12/24 14:38:06;;;;;;;5.55;3.22;;;8.00;99.90;;;;;;5054371;28;20477;-80
2021/12/24 14:40:35;;;;;;;7.75;5.88;;;8.00;99.90;;;;;;5052839;28;20098;-81
2021/12/24 14:43:12;;;;;;;6.25;4.15;;;8.00;99.90;;;;;;5054219;28;20435;-80
2021/12/24 14:45:41;;;;;;;9.07;6.50;;;8.10;99.90;;;;;;5052940;28;20028;-80
2021/12/24 14:48:32;;;;;;;6.93;5.78;;;8.10;99.90;;;;;;5054116;28;20017;-81
2021/12/24 14:51:03;;;;;;;6.38;4.78;;;8.10;99.90;;;;;;5052967;28;20040;-80
2021/12/24 14:53:36;;;;;;;4.18;2.78;;;8.00;99.90;;;;;;5052929;28;20393;-81
2021/12/24 14:56:13;;;;;;;3.58;3.05;;;8.00;99.90;;;;;;5052774;28;20111;-80
2021/12/24 14:58:41;;;;;;;3.17;2.17;;;7.90;99.90;;;;;;5052798;28;20021;-80
2021/12/24 15:01:10;;;;;;;2.03;1.60;;;7.90;99.90;;;;;;5053991;28;20067;-80
2021/12/24 15:03:41;;;;;;;5.43;3.78;;;7.90;99.90;;;;;;5052590;28;20021;-80
2021/12/24 15:06:19;;;;;;;3.85;2.28;;;7.80;99.90;;;;;;5052681;28;20024;-80
2021/12/24 15:08:47;;;;;;;3.03;2.60;;;7.70;99.90;;;;;;5052595;28;20028;-80
2021/12/24 15:11:19;;;;;;;1.75;1.48;;;7.70;99.90;;;;;;5052514;28;20028;-81